sensor_id;sensor_type;location;lat;lon;timestamp;P1;durP1;ratioP1;P2;durP2;ratioP2
25191;SDS011;13143;50.924;5.320;2023-12-22T00:00:20;25.15;;;3.75;;
25191;SDS011;13143;50.924;5.320;2023-12-22T00:02:45;20.60;;;3.47;;
25191;SDS011;13143;50.924;5.320;2023-12-22T00:05:11;25.50;;;4.05;;
25191;SDS011;13143;50.924;5.320;2023-12-22T00:07:37;24.35;;;4.82;;
25191;SDS011;13143;50.924;5.320;2023-12-22T00:10:02;27.48;;;4.72;;
25191;SDS011;13143;50.924;5.320;2023-12-22T00:12:28;26.73;;;4.45;;
25191;SDS011;13143;50.924;5.320;2023-12-22T00:14:54;26.52;;;3.60;;
25191;SDS011;13143;50.924;5.320;2023-12-22T00:17:20;28.95;;;4.68;;
25191;SDS011;13143;50.924;5.320;2023-12-22T00:19:45;31.08;;;4.40;;
25191;SDS011;13143;50.924;5.320;2023-12-22T00:22:11;28.20;;;4.63;;
25191;SDS011;13143;50.924;5.320;2023-12-22T00:24:37;25.90;;;4.32;;
25191;SDS011;13143;50.924;5.320;2023-12-22T00:27:02;25.55;;;4.45;;
25191;SDS011;13143;50.924;5.320;2023-12-22T00:29:28;30.98;;;4.13;;
25191;SDS011;13143;50.924;5.320;2023-12-22T00:31:54;28.88;;;4.68;;
25191;SDS011;13143;50.924;5.320;2023-12-22T00:34:21;28.45;;;4.35;;
25191;SDS011;13143;50.924;5.320;2023-12-22T00:36:47;30.65;;;4.47;;
25191;SDS011;13143;50.924;5.320;2023-12-22T00:39:13;21.73;;;4.30;;
25191;SDS011;13143;50.924;5.320;2023-12-22T00:41:38;24.67;;;4.30;;
25191;SDS011;13143;50.924;5.320;2023-12-22T00:44:04;34.13;;;4.15;;
25191;SDS011;13143;50.924;5.320;2023-12-22T00:46:30;25.10;;;3.47;;
25191;SDS011;13143;50.924;5.320;2023-12-22T00:48:55;27.05;;;3.95;;
25191;SDS011;13143;50.924;5.320;2023-12-22T00:51:21;28.55;;;4.45;;
25191;SDS011;13143;50.924;5.320;2023-12-22T00:53:47;25.73;;;3.55;;
25191;SDS011;13143;50.924;5.320;2023-12-22T00:56:13;24.02;;;3.95;;
25191;SDS011;13143;50.924;5.320;2023-12-22T00:58:39;20.65;;;3.45;;
25191;SDS011;13143;50.924;5.320;2023-12-22T01:01:05;24.98;;;4.20;;
25191;SDS011;13143;50.924;5.320;2023-12-22T01:03:31;20.00;;;3.30;;
25191;SDS011;13143;50.924;5.320;2023-12-22T01:05:56;20.02;;;3.38;;
25191;SDS011;13143;50.924;5.320;2023-12-22T01:08:22;24.67;;;5.20;;
25191;SDS011;13143;50.924;5.320;2023-12-22T01:10:48;25.98;;;4.13;;
25191;SDS011;13143;50.924;5.320;2023-12-22T01:13:14;20.23;;;3.75;;
25191;SDS011;13143;50.924;5.320;2023-12-22T01:15:39;26.40;;;4.07;;
25191;SDS011;13143;50.924;5.320;2023-12-22T01:18:05;18.52;;;3.22;;
25191;SDS011;13143;50.924;5.320;2023-12-22T01:20:31;18.95;;;2.90;;
25191;SDS011;13143;50.924;5.320;2023-12-22T01:22:57;17.80;;;2.63;;
25191;SDS011;13143;50.924;5.320;2023-12-22T01:25:22;23.75;;;3.67;;
25191;SDS011;13143;50.924;5.320;2023-12-22T01:27:48;16.85;;;2.90;;
25191;SDS011;13143;50.924;5.320;2023-12-22T01:30:17;20.85;;;4.43;;
25191;SDS011;13143;50.924;5.320;2023-12-22T01:32:43;18.58;;;3.05;;
25191;SDS011;13143;50.924;5.320;2023-12-22T01:35:09;20.48;;;3.22;;
25191;SDS011;13143;50.924;5.320;2023-12-22T01:37:35;27.98;;;3.60;;
25191;SDS011;13143;50.924;5.320;2023-12-22T01:40:02;15.25;;;3.15;;
25191;SDS011;13143;50.924;5.320;2023-12-22T01:42:29;24.38;;;4.30;;
25191;SDS011;13143;50.924;5.320;2023-12-22T01:44:55;21.27;;;3.70;;
25191;SDS011;13143;50.924;5.320;2023-12-22T01:47:21;20.25;;;3.53;;
25191;SDS011;13143;50.924;5.320;2023-12-22T01:49:47;20.85;;;3.55;;
25191;SDS011;13143;50.924;5.320;2023-12-22T01:52:14;26.05;;;4.43;;
25191;SDS011;13143;50.924;5.320;2023-12-22T01:54:40;25.67;;;3.72;;
25191;SDS011;13143;50.924;5.320;2023-12-22T01:57:06;21.08;;;3.67;;
25191;SDS011;13143;50.924;5.320;2023-12-22T01:59:32;29.60;;;4.50;;
25191;SDS011;13143;50.924;5.320;2023-12-22T02:02:02;16.45;;;3.15;;
25191;SDS011;13143;50.924;5.320;2023-12-22T02:04:29;24.67;;;4.85;;
25191;SDS011;13143;50.924;5.320;2023-12-22T02:06:58;16.58;;;3.53;;
25191;SDS011;13143;50.924;5.320;2023-12-22T02:09:26;27.65;;;3.83;;
25191;SDS011;13143;50.924;5.320;2023-12-22T02:11:52;27.15;;;4.20;;
25191;SDS011;13143;50.924;5.320;2023-12-22T02:14:18;24.08;;;3.53;;
25191;SDS011;13143;50.924;5.320;2023-12-22T02:22:11;21.60;;;3.50;;
25191;SDS011;13143;50.924;5.320;2023-12-22T02:24:40;24.85;;;3.53;;
25191;SDS011;13143;50.924;5.320;2023-12-22T02:27:28;28.23;;;4.03;;
25191;SDS011;13143;50.924;5.320;2023-12-22T02:32:59;29.48;;;3.95;;
25191;SDS011;13143;50.924;5.320;2023-12-22T02:35:26;17.13;;;3.17;;
25191;SDS011;13143;50.924;5.320;2023-12-22T02:37:56;23.92;;;4.32;;
25191;SDS011;13143;50.924;5.320;2023-12-22T02:40:23;23.25;;;3.63;;
25191;SDS011;13143;50.924;5.320;2023-12-22T02:42:51;26.27;;;4.00;;
25191;SDS011;13143;50.924;5.320;2023-12-22T02:45:18;28.58;;;4.85;;
25191;SDS011;13143;50.924;5.320;2023-12-22T02:47:45;33.55;;;4.10;;
25191;SDS011;13143;50.924;5.320;2023-12-22T02:50:15;28.10;;;3.85;;
25191;SDS011;13143;50.924;5.320;2023-12-22T02:52:41;32.08;;;4.55;;
25191;SDS011;13143;50.924;5.320;2023-12-22T02:55:08;17.15;;;3.72;;
25191;SDS011;13143;50.924;5.320;2023-12-22T02:57:34;24.85;;;4.03;;
25191;SDS011;13143;50.924;5.320;2023-12-22T03:00:00;26.02;;;3.95;;
25191;SDS011;13143;50.924;5.320;2023-12-22T03:02:26;27.63;;;4.93;;
25191;SDS011;13143;50.924;5.320;2023-12-22T03:04:51;26.50;;;4.07;;
25191;SDS011;13143;50.924;5.320;2023-12-22T03:07:17;26.38;;;4.63;;
25191;SDS011;13143;50.924;5.320;2023-12-22T03:09:43;30.60;;;4.25;;
25191;SDS011;13143;50.924;5.320;2023-12-22T03:12:09;23.67;;;3.95;;
25191;SDS011;13143;50.924;5.320;2023-12-22T03:14:36;33.97;;;5.07;;
25191;SDS011;13143;50.924;5.320;2023-12-22T03:17:02;22.45;;;3.47;;
25191;SDS011;13143;50.924;5.320;2023-12-22T03:19:30;29.15;;;4.60;;
25191;SDS011;13143;50.924;5.320;2023-12-22T03:21:56;28.80;;;4.22;;
25191;SDS011;13143;50.924;5.320;2023-12-22T03:24:22;21.23;;;3.67;;
25191;SDS011;13143;50.924;5.320;2023-12-22T03:26:48;22.85;;;3.70;;
25191;SDS011;13143;50.924;5.320;2023-12-22T03:29:14;27.08;;;4.53;;
25191;SDS011;13143;50.924;5.320;2023-12-22T03:31:40;27.35;;;4.18;;
25191;SDS011;13143;50.924;5.320;2023-12-22T03:34:06;22.08;;;3.60;;
25191;SDS011;13143;50.924;5.320;2023-12-22T03:36:32;24.27;;;3.40;;
25191;SDS011;13143;50.924;5.320;2023-12-22T03:38:58;17.35;;;3.42;;
25191;SDS011;13143;50.924;5.320;2023-12-22T03:41:24;21.25;;;3.92;;
25191;SDS011;13143;50.924;5.320;2023-12-22T03:43:50;21.75;;;3.72;;
25191;SDS011;13143;50.924;5.320;2023-12-22T03:46:16;27.90;;;3.95;;
25191;SDS011;13143;50.924;5.320;2023-12-22T03:48:42;18.88;;;3.63;;
25191;SDS011;13143;50.924;5.320;2023-12-22T03:51:08;23.02;;;3.20;;
25191;SDS011;13143;50.924;5.320;2023-12-22T03:53:35;22.88;;;3.40;;
25191;SDS011;13143;50.924;5.320;2023-12-22T03:56:01;20.10;;;3.58;;
25191;SDS011;13143;50.924;5.320;2023-12-22T03:58:27;17.55;;;3.05;;
25191;SDS011;13143;50.924;5.320;2023-12-22T04:00:55;19.05;;;3.38;;
25191;SDS011;13143;50.924;5.320;2023-12-22T04:03:21;20.70;;;4.18;;
25191;SDS011;13143;50.924;5.320;2023-12-22T04:05:47;19.25;;;3.47;;
25191;SDS011;13143;50.924;5.320;2023-12-22T04:08:13;22.98;;;3.28;;
25191;SDS011;13143;50.924;5.320;2023-12-22T04:10:42;16.40;;;3.47;;
25191;SDS011;13143;50.924;5.320;2023-12-22T04:13:09;22.20;;;3.15;;
25191;SDS011;13143;50.924;5.320;2023-12-22T04:15:35;21.20;;;3.33;;
25191;SDS011;13143;50.924;5.320;2023-12-22T04:18:01;17.52;;;3.05;;
25191;SDS011;13143;50.924;5.320;2023-12-22T04:20:27;19.17;;;3.13;;
25191;SDS011;13143;50.924;5.320;2023-12-22T04:22:53;16.83;;;3.55;;
25191;SDS011;13143;50.924;5.320;2023-12-22T04:25:18;28.25;;;4.13;;
25191;SDS011;13143;50.924;5.320;2023-12-22T04:27:44;19.98;;;3.35;;
25191;SDS011;13143;50.924;5.320;2023-12-22T04:30:10;18.08;;;4.05;;
25191;SDS011;13143;50.924;5.320;2023-12-22T04:32:39;23.63;;;3.25;;
25191;SDS011;13143;50.924;5.320;2023-12-22T04:35:05;23.23;;;3.25;;
25191;SDS011;13143;50.924;5.320;2023-12-22T04:37:31;23.48;;;3.58;;
25191;SDS011;13143;50.924;5.320;2023-12-22T04:39:58;22.15;;;4.15;;
25191;SDS011;13143;50.924;5.320;2023-12-22T04:42:23;23.95;;;4.32;;
25191;SDS011;13143;50.924;5.320;2023-12-22T04:44:51;27.35;;;4.40;;
25191;SDS011;13143;50.924;5.320;2023-12-22T04:47:17;24.42;;;5.03;;
25191;SDS011;13143;50.924;5.320;2023-12-22T04:49:43;28.63;;;4.40;;
25191;SDS011;13143;50.924;5.320;2023-12-22T04:52:10;30.27;;;4.50;;
25191;SDS011;13143;50.924;5.320;2023-12-22T04:54:36;28.58;;;4.53;;
25191;SDS011;13143;50.924;5.320;2023-12-22T04:57:03;27.60;;;4.30;;
25191;SDS011;13143;50.924;5.320;2023-12-22T04:59:29;26.45;;;4.30;;
25191;SDS011;13143;50.924;5.320;2023-12-22T05:01:55;26.88;;;4.82;;
25191;SDS011;13143;50.924;5.320;2023-12-22T05:04:21;26.52;;;3.60;;
25191;SDS011;13143;50.924;5.320;2023-12-22T05:06:50;30.98;;;5.30;;
25191;SDS011;13143;50.924;5.320;2023-12-22T05:09:16;30.63;;;4.35;;
25191;SDS011;13143;50.924;5.320;2023-12-22T05:11:42;30.45;;;4.25;;
25191;SDS011;13143;50.924;5.320;2023-12-22T05:14:08;22.45;;;4.25;;
25191;SDS011;13143;50.924;5.320;2023-12-22T05:16:34;28.48;;;4.80;;
25191;SDS011;13143;50.924;5.320;2023-12-22T05:19:03;33.30;;;5.22;;
25191;SDS011;13143;50.924;5.320;2023-12-22T05:21:29;25.33;;;3.97;;
25191;SDS011;13143;50.924;5.320;2023-12-22T05:23:55;32.78;;;4.53;;
25191;SDS011;13143;50.924;5.320;2023-12-22T05:26:21;35.42;;;6.10;;
25191;SDS011;13143;50.924;5.320;2023-12-22T05:28:47;31.80;;;5.38;;
25191;SDS011;13143;50.924;5.320;2023-12-22T05:31:16;31.70;;;5.05;;
25191;SDS011;13143;50.924;5.320;2023-12-22T05:33:43;32.97;;;5.72;;
25191;SDS011;13143;50.924;5.320;2023-12-22T05:36:09;34.85;;;5.32;;
25191;SDS011;13143;50.924;5.320;2023-12-22T05:38:38;25.90;;;5.82;;
25191;SDS011;13143;50.924;5.320;2023-12-22T05:41:04;32.03;;;5.38;;
25191;SDS011;13143;50.924;5.320;2023-12-22T05:43:33;46.97;;;5.70;;
25191;SDS011;13143;50.924;5.320;2023-12-22T05:45:59;40.80;;;5.72;;
25191;SDS011;13143;50.924;5.320;2023-12-22T05:48:26;38.13;;;6.13;;
25191;SDS011;13143;50.924;5.320;2023-12-22T05:50:58;38.78;;;6.40;;
25191;SDS011;13143;50.924;5.320;2023-12-22T05:53:24;38.15;;;5.75;;
25191;SDS011;13143;50.924;5.320;2023-12-22T05:55:50;42.33;;;6.55;;
25191;SDS011;13143;50.924;5.320;2023-12-22T05:58:16;45.03;;;6.07;;
25191;SDS011;13143;50.924;5.320;2023-12-22T06:00:41;41.13;;;5.93;;
25191;SDS011;13143;50.924;5.320;2023-12-22T06:03:07;30.42;;;5.35;;
25191;SDS011;13143;50.924;5.320;2023-12-22T06:05:33;48.15;;;7.45;;
25191;SDS011;13143;50.924;5.320;2023-12-22T06:07:59;36.78;;;5.88;;
25191;SDS011;13143;50.924;5.320;2023-12-22T06:10:25;45.70;;;6.03;;
25191;SDS011;13143;50.924;5.320;2023-12-22T06:12:51;42.88;;;5.70;;
25191;SDS011;13143;50.924;5.320;2023-12-22T06:15:17;47.28;;;7.03;;
25191;SDS011;13143;50.924;5.320;2023-12-22T06:17:43;40.13;;;5.88;;
25191;SDS011;13143;50.924;5.320;2023-12-22T06:20:09;35.70;;;5.60;;
25191;SDS011;13143;50.924;5.320;2023-12-22T06:22:35;37.72;;;6.25;;
25191;SDS011;13143;50.924;5.320;2023-12-22T06:25:01;36.53;;;5.90;;
25191;SDS011;13143;50.924;5.320;2023-12-22T06:27:35;46.08;;;6.97;;
25191;SDS011;13143;50.924;5.320;2023-12-22T06:30:03;55.28;;;8.20;;
25191;SDS011;13143;50.924;5.320;2023-12-22T06:32:30;43.10;;;6.25;;
25191;SDS011;13143;50.924;5.320;2023-12-22T06:34:56;34.15;;;6.43;;
25191;SDS011;13143;50.924;5.320;2023-12-22T06:37:24;36.80;;;5.35;;
25191;SDS011;13143;50.924;5.320;2023-12-22T06:39:50;37.55;;;7.00;;
25191;SDS011;13143;50.924;5.320;2023-12-22T06:42:16;43.53;;;6.50;;
25191;SDS011;13143;50.924;5.320;2023-12-22T06:44:42;54.20;;;5.95;;
25191;SDS011;13143;50.924;5.320;2023-12-22T06:47:11;37.80;;;6.40;;
25191;SDS011;13143;50.924;5.320;2023-12-22T06:49:37;43.58;;;6.40;;
25191;SDS011;13143;50.924;5.320;2023-12-22T06:52:03;45.78;;;6.97;;
25191;SDS011;13143;50.924;5.320;2023-12-22T06:54:29;46.85;;;6.90;;
25191;SDS011;13143;50.924;5.320;2023-12-22T06:56:55;44.47;;;7.57;;
25191;SDS011;13143;50.924;5.320;2023-12-22T06:59:20;40.35;;;5.95;;
25191;SDS011;13143;50.924;5.320;2023-12-22T07:01:46;42.35;;;6.47;;
25191;SDS011;13143;50.924;5.320;2023-12-22T07:04:12;48.20;;;8.10;;
25191;SDS011;13143;50.924;5.320;2023-12-22T07:06:38;33.58;;;6.35;;
25191;SDS011;13143;50.924;5.320;2023-12-22T07:11:38;40.95;;;7.25;;
25191;SDS011;13143;50.924;5.320;2023-12-22T07:14:05;54.67;;;7.25;;
25191;SDS011;13143;50.924;5.320;2023-12-22T07:16:32;36.65;;;5.35;;
25191;SDS011;13143;50.924;5.320;2023-12-22T07:19:01;37.05;;;5.90;;
25191;SDS011;13143;50.924;5.320;2023-12-22T07:21:27;37.95;;;5.70;;
25191;SDS011;13143;50.924;5.320;2023-12-22T07:23:53;41.80;;;7.18;;
25191;SDS011;13143;50.924;5.320;2023-12-22T07:26:19;37.03;;;6.65;;
25191;SDS011;13143;50.924;5.320;2023-12-22T07:28:47;36.55;;;6.28;;
25191;SDS011;13143;50.924;5.320;2023-12-22T07:31:13;39.45;;;6.15;;
25191;SDS011;13143;50.924;5.320;2023-12-22T07:33:39;36.05;;;5.60;;
25191;SDS011;13143;50.924;5.320;2023-12-22T07:36:06;36.88;;;5.25;;
25191;SDS011;13143;50.924;5.320;2023-12-22T07:38:32;35.15;;;5.88;;
25191;SDS011;13143;50.924;5.320;2023-12-22T07:40:58;30.48;;;4.97;;
25191;SDS011;13143;50.924;5.320;2023-12-22T07:43:24;32.92;;;5.22;;
25191;SDS011;13143;50.924;5.320;2023-12-22T07:45:50;33.80;;;5.55;;
25191;SDS011;13143;50.924;5.320;2023-12-22T07:48:16;33.65;;;5.68;;
25191;SDS011;13143;50.924;5.320;2023-12-22T07:50:43;25.05;;;4.28;;
25191;SDS011;13143;50.924;5.320;2023-12-22T07:53:10;31.15;;;4.50;;
25191;SDS011;13143;50.924;5.320;2023-12-22T07:55:36;22.88;;;3.80;;
25191;SDS011;13143;50.924;5.320;2023-12-22T07:58:03;20.90;;;3.92;;
25191;SDS011;13143;50.924;5.320;2023-12-22T08:00:30;24.25;;;4.55;;
25191;SDS011;13143;50.924;5.320;2023-12-22T08:02:56;21.80;;;3.97;;
25191;SDS011;13143;50.924;5.320;2023-12-22T08:05:22;22.80;;;3.67;;
25191;SDS011;13143;50.924;5.320;2023-12-22T08:07:47;23.95;;;4.00;;
25191;SDS011;13143;50.924;5.320;2023-12-22T08:10:16;21.98;;;3.72;;
25191;SDS011;13143;50.924;5.320;2023-12-22T08:12:42;21.67;;;3.85;;
25191;SDS011;13143;50.924;5.320;2023-12-22T08:15:08;25.33;;;3.67;;
25191;SDS011;13143;50.924;5.320;2023-12-22T08:17:45;16.48;;;2.78;;
25191;SDS011;13143;50.924;5.320;2023-12-22T08:20:18;19.13;;;3.38;;
25191;SDS011;13143;50.924;5.320;2023-12-22T08:22:45;19.52;;;3.88;;
25191;SDS011;13143;50.924;5.320;2023-12-22T08:25:14;21.92;;;3.72;;
25191;SDS011;13143;50.924;5.320;2023-12-22T08:27:41;18.98;;;3.60;;
25191;SDS011;13143;50.924;5.320;2023-12-22T08:30:10;21.08;;;3.65;;
25191;SDS011;13143;50.924;5.320;2023-12-22T08:32:36;24.88;;;4.32;;
25191;SDS011;13143;50.924;5.320;2023-12-22T08:35:03;21.10;;;3.80;;
25191;SDS011;13143;50.924;5.320;2023-12-22T08:37:32;22.92;;;3.42;;
25191;SDS011;13143;50.924;5.320;2023-12-22T08:39:58;20.77;;;3.38;;
25191;SDS011;13143;50.924;5.320;2023-12-22T08:42:25;18.55;;;4.03;;
25191;SDS011;13143;50.924;5.320;2023-12-22T08:44:51;13.05;;;2.75;;
25191;SDS011;13143;50.924;5.320;2023-12-22T08:47:17;16.80;;;3.10;;
25191;SDS011;13143;50.924;5.320;2023-12-22T08:49:43;14.10;;;3.08;;
25191;SDS011;13143;50.924;5.320;2023-12-22T08:52:09;21.58;;;4.70;;
25191;SDS011;13143;50.924;5.320;2023-12-22T08:54:35;21.08;;;3.70;;
25191;SDS011;13143;50.924;5.320;2023-12-22T08:57:04;19.10;;;4.13;;
25191;SDS011;13143;50.924;5.320;2023-12-22T08:59:30;13.10;;;3.72;;
25191;SDS011;13143;50.924;5.320;2023-12-22T09:01:55;15.85;;;4.05;;
25191;SDS011;13143;50.924;5.320;2023-12-22T09:04:21;15.60;;;3.35;;
25191;SDS011;13143;50.924;5.320;2023-12-22T09:06:50;19.00;;;3.58;;
25191;SDS011;13143;50.924;5.320;2023-12-22T09:09:16;11.82;;;2.90;;
25191;SDS011;13143;50.924;5.320;2023-12-22T09:11:43;15.27;;;3.90;;
25191;SDS011;13143;50.924;5.320;2023-12-22T09:14:09;13.98;;;3.50;;
25191;SDS011;13143;50.924;5.320;2023-12-22T09:16:36;17.75;;;3.17;;
25191;SDS011;13143;50.924;5.320;2023-12-22T09:19:02;13.93;;;3.10;;
25191;SDS011;13143;50.924;5.320;2023-12-22T09:21:29;12.10;;;3.10;;
25191;SDS011;13143;50.924;5.320;2023-12-22T09:23:54;9.73;;;2.95;;
25191;SDS011;13143;50.924;5.320;2023-12-22T09:26:21;6.68;;;2.50;;
25191;SDS011;13143;50.924;5.320;2023-12-22T09:28:46;11.80;;;2.95;;
25191;SDS011;13143;50.924;5.320;2023-12-22T09:31:13;8.55;;;2.95;;
25191;SDS011;13143;50.924;5.320;2023-12-22T09:33:39;4.85;;;2.63;;
25191;SDS011;13143;50.924;5.320;2023-12-22T09:36:06;8.23;;;3.10;;
25191;SDS011;13143;50.924;5.320;2023-12-22T09:38:33;4.25;;;2.58;;
25191;SDS011;13143;50.924;5.320;2023-12-22T09:40:59;8.15;;;2.80;;
25191;SDS011;13143;50.924;5.320;2023-12-22T09:43:26;10.65;;;3.13;;
25191;SDS011;13143;50.924;5.320;2023-12-22T09:45:52;10.07;;;3.63;;
25191;SDS011;13143;50.924;5.320;2023-12-22T09:48:18;7.85;;;2.72;;
25191;SDS011;13143;50.924;5.320;2023-12-22T09:50:52;7.68;;;3.00;;
25191;SDS011;13143;50.924;5.320;2023-12-22T09:53:19;9.30;;;2.95;;
25191;SDS011;13143;50.924;5.320;2023-12-22T09:55:46;5.25;;;2.67;;
25191;SDS011;13143;50.924;5.320;2023-12-22T09:58:13;6.00;;;2.53;;
25191;SDS011;13143;50.924;5.320;2023-12-22T10:00:41;8.02;;;2.65;;
25191;SDS011;13143;50.924;5.320;2023-12-22T10:03:09;6.18;;;2.60;;
25191;SDS011;13143;50.924;5.320;2023-12-22T10:05:37;8.07;;;2.97;;
25191;SDS011;13143;50.924;5.320;2023-12-22T10:08:04;6.10;;;2.88;;
25191;SDS011;13143;50.924;5.320;2023-12-22T10:10:30;6.10;;;2.65;;
25191;SDS011;13143;50.924;5.320;2023-12-22T10:13:01;8.02;;;3.00;;
25191;SDS011;13143;50.924;5.320;2023-12-22T10:15:29;6.95;;;3.40;;
25191;SDS011;13143;50.924;5.320;2023-12-22T10:17:56;7.72;;;3.13;;
25191;SDS011;13143;50.924;5.320;2023-12-22T10:20:22;11.05;;;2.70;;
25191;SDS011;13143;50.924;5.320;2023-12-22T10:22:51;9.05;;;2.40;;
25191;SDS011;13143;50.924;5.320;2023-12-22T10:25:20;7.63;;;2.30;;
25191;SDS011;13143;50.924;5.320;2023-12-22T10:27:52;5.90;;;2.25;;
25191;SDS011;13143;50.924;5.320;2023-12-22T10:30:18;5.25;;;2.33;;
25191;SDS011;13143;50.924;5.320;2023-12-22T10:32:45;4.15;;;1.98;;
25191;SDS011;13143;50.924;5.320;2023-12-22T10:35:11;6.78;;;2.30;;
25191;SDS011;13143;50.924;5.320;2023-12-22T10:37:37;9.35;;;2.83;;
25191;SDS011;13143;50.924;5.320;2023-12-22T10:40:08;6.57;;;2.35;;
25191;SDS011;13143;50.924;5.320;2023-12-22T10:42:35;9.05;;;2.40;;
25191;SDS011;13143;50.924;5.320;2023-12-22T10:45:01;8.23;;;2.42;;
25191;SDS011;13143;50.924;5.320;2023-12-22T10:47:28;8.45;;;2.83;;
25191;SDS011;13143;50.924;5.320;2023-12-22T10:49:54;6.78;;;2.40;;
25191;SDS011;13143;50.924;5.320;2023-12-22T10:52:20;8.60;;;2.47;;
25191;SDS011;13143;50.924;5.320;2023-12-22T10:54:46;7.00;;;3.05;;
25191;SDS011;13143;50.924;5.320;2023-12-22T10:57:17;8.98;;;2.63;;
25191;SDS011;13143;50.924;5.320;2023-12-22T10:59:46;7.97;;;2.30;;
25191;SDS011;13143;50.924;5.320;2023-12-22T11:02:16;5.70;;;2.22;;
25191;SDS011;13143;50.924;5.320;2023-12-22T11:05:02;8.98;;;2.60;;
25191;SDS011;13143;50.924;5.320;2023-12-22T11:07:35;8.02;;;2.10;;
25191;SDS011;13143;50.924;5.320;2023-12-22T11:10:02;5.70;;;1.95;;
25191;SDS011;13143;50.924;5.320;2023-12-22T11:12:37;9.55;;;1.85;;
25191;SDS011;13143;50.924;5.320;2023-12-22T11:15:04;13.57;;;2.17;;
25191;SDS011;13143;50.924;5.320;2023-12-22T11:17:32;8.25;;;1.80;;
25191;SDS011;13143;50.924;5.320;2023-12-22T11:20:01;8.40;;;2.17;;
25191;SDS011;13143;50.924;5.320;2023-12-22T11:22:28;7.55;;;2.20;;
25191;SDS011;13143;50.924;5.320;2023-12-22T11:24:56;8.00;;;2.35;;
25191;SDS011;13143;50.924;5.320;2023-12-22T11:27:25;11.07;;;1.85;;
25191;SDS011;13143;50.924;5.320;2023-12-22T11:29:53;10.93;;;2.05;;
25191;SDS011;13143;50.924;5.320;2023-12-22T11:32:20;6.55;;;1.80;;
25191;SDS011;13143;50.924;5.320;2023-12-22T11:34:46;6.40;;;1.70;;
25191;SDS011;13143;50.924;5.320;2023-12-22T11:37:13;6.22;;;2.08;;
25191;SDS011;13143;50.924;5.320;2023-12-22T11:39:40;7.70;;;2.03;;
25191;SDS011;13143;50.924;5.320;2023-12-22T11:42:14;11.15;;;1.60;;
25191;SDS011;13143;50.924;5.320;2023-12-22T11:44:46;8.88;;;2.20;;
25191;SDS011;13143;50.924;5.320;2023-12-22T11:47:13;7.05;;;1.95;;
25191;SDS011;13143;50.924;5.320;2023-12-22T11:49:39;8.93;;;2.30;;
25191;SDS011;13143;50.924;5.320;2023-12-22T11:52:12;5.70;;;1.52;;
25191;SDS011;13143;50.924;5.320;2023-12-22T11:54:49;8.07;;;1.98;;
25191;SDS011;13143;50.924;5.320;2023-12-22T11:57:29;7.03;;;1.55;;
25191;SDS011;13143;50.924;5.320;2023-12-22T12:00:02;7.38;;;1.65;;
25191;SDS011;13143;50.924;5.320;2023-12-22T12:02:32;12.50;;;1.73;;
25191;SDS011;13143;50.924;5.320;2023-12-22T12:05:00;8.52;;;1.42;;
25191;SDS011;13143;50.924;5.320;2023-12-22T12:10:04;14.43;;;1.80;;
25191;SDS011;13143;50.924;5.320;2023-12-22T12:12:34;8.20;;;1.30;;
25191;SDS011;13143;50.924;5.320;2023-12-22T12:15:21;7.90;;;1.33;;
25191;SDS011;13143;50.924;5.320;2023-12-22T12:17:48;4.60;;;1.27;;
25191;SDS011;13143;50.924;5.320;2023-12-22T12:20:15;9.20;;;1.50;;
25191;SDS011;13143;50.924;5.320;2023-12-22T12:22:42;6.60;;;1.67;;
25191;SDS011;13143;50.924;5.320;2023-12-22T12:25:11;5.13;;;1.35;;
25191;SDS011;13143;50.924;5.320;2023-12-22T12:27:37;5.15;;;1.20;;
25191;SDS011;13143;50.924;5.320;2023-12-22T12:30:10;9.88;;;1.77;;
25191;SDS011;13143;50.924;5.320;2023-12-22T12:32:38;8.63;;;1.52;;
25191;SDS011;13143;50.924;5.320;2023-12-22T12:35:07;7.38;;;1.70;;
25191;SDS011;13143;50.924;5.320;2023-12-22T12:37:33;6.40;;;1.50;;
25191;SDS011;13143;50.924;5.320;2023-12-22T12:40:00;6.93;;;3.28;;
25191;SDS011;13143;50.924;5.320;2023-12-22T12:42:29;7.50;;;1.42;;
25191;SDS011;13143;50.924;5.320;2023-12-22T12:44:56;7.70;;;1.35;;
25191;SDS011;13143;50.924;5.320;2023-12-22T12:47:22;7.05;;;1.42;;
25191;SDS011;13143;50.924;5.320;2023-12-22T12:49:56;4.80;;;1.30;;
25191;SDS011;13143;50.924;5.320;2023-12-22T12:52:23;10.00;;;1.85;;
25191;SDS011;13143;50.924;5.320;2023-12-22T12:54:50;8.25;;;1.40;;
25191;SDS011;13143;50.924;5.320;2023-12-22T12:57:16;4.85;;;1.23;;
25191;SDS011;13143;50.924;5.320;2023-12-22T12:59:46;7.32;;;1.58;;
25191;SDS011;13143;50.924;5.320;2023-12-22T13:02:13;7.93;;;1.33;;
25191;SDS011;13143;50.924;5.320;2023-12-22T13:04:40;6.53;;;1.48;;
25191;SDS011;13143;50.924;5.320;2023-12-22T13:07:06;9.02;;;1.50;;
25191;SDS011;13143;50.924;5.320;2023-12-22T13:09:33;9.15;;;1.58;;
25191;SDS011;13143;50.924;5.320;2023-12-22T13:11:59;7.05;;;1.45;;
25191;SDS011;13143;50.924;5.320;2023-12-22T13:14:25;9.98;;;1.38;;
25191;SDS011;13143;50.924;5.320;2023-12-22T13:16:52;8.07;;;1.25;;
25191;SDS011;13143;50.924;5.320;2023-12-22T13:19:21;8.27;;;1.17;;
25191;SDS011;13143;50.924;5.320;2023-12-22T13:21:49;10.90;;;2.22;;
25191;SDS011;13143;50.924;5.320;2023-12-22T13:24:16;10.35;;;1.33;;
25191;SDS011;13143;50.924;5.320;2023-12-22T13:26:42;8.05;;;1.45;;
25191;SDS011;13143;50.924;5.320;2023-12-22T13:29:10;7.93;;;1.38;;
25191;SDS011;13143;50.924;5.320;2023-12-22T13:31:37;15.15;;;5.63;;
25191;SDS011;13143;50.924;5.320;2023-12-22T13:34:08;7.07;;;1.60;;
25191;SDS011;13143;50.924;5.320;2023-12-22T13:36:35;7.55;;;1.60;;
25191;SDS011;13143;50.924;5.320;2023-12-22T13:39:07;8.75;;;1.45;;
25191;SDS011;13143;50.924;5.320;2023-12-22T13:41:33;6.63;;;1.38;;
25191;SDS011;13143;50.924;5.320;2023-12-22T13:44:03;10.68;;;1.75;;
25191;SDS011;13143;50.924;5.320;2023-12-22T13:46:30;15.77;;;1.85;;
25191;SDS011;13143;50.924;5.320;2023-12-22T13:48:58;8.13;;;1.30;;
25191;SDS011;13143;50.924;5.320;2023-12-22T13:51:24;14.73;;;2.05;;
25191;SDS011;13143;50.924;5.320;2023-12-22T13:53:50;10.10;;;1.45;;
25191;SDS011;13143;50.924;5.320;2023-12-22T13:56:16;9.68;;;1.77;;
25191;SDS011;13143;50.924;5.320;2023-12-22T13:58:45;8.27;;;1.60;;
25191;SDS011;13143;50.924;5.320;2023-12-22T14:01:13;7.82;;;1.35;;
25191;SDS011;13143;50.924;5.320;2023-12-22T14:03:42;11.10;;;1.83;;
25191;SDS011;13143;50.924;5.320;2023-12-22T14:06:10;4.85;;;1.30;;
25191;SDS011;13143;50.924;5.320;2023-12-22T14:08:39;12.43;;;1.58;;
25191;SDS011;13143;50.924;5.320;2023-12-22T14:11:08;10.82;;;1.52;;
25191;SDS011;13143;50.924;5.320;2023-12-22T14:13:34;2.83;;;1.02;;
25191;SDS011;13143;50.924;5.320;2023-12-22T14:16:07;8.15;;;1.58;;
25191;SDS011;13143;50.924;5.320;2023-12-22T14:18:33;5.65;;;1.75;;
25191;SDS011;13143;50.924;5.320;2023-12-22T14:20:59;7.97;;;1.95;;
25191;SDS011;13143;50.924;5.320;2023-12-22T14:23:30;7.00;;;1.42;;
25191;SDS011;13143;50.924;5.320;2023-12-22T14:25:56;7.13;;;1.42;;
25191;SDS011;13143;50.924;5.320;2023-12-22T14:28:23;11.60;;;2.00;;
25191;SDS011;13143;50.924;5.320;2023-12-22T14:30:48;5.60;;;1.38;;
25191;SDS011;13143;50.924;5.320;2023-12-22T14:33:15;7.70;;;1.50;;
25191;SDS011;13143;50.924;5.320;2023-12-22T14:35:41;9.55;;;1.40;;
25191;SDS011;13143;50.924;5.320;2023-12-22T14:38:07;6.65;;;1.52;;
25191;SDS011;13143;50.924;5.320;2023-12-22T14:40:32;9.02;;;1.70;;
25191;SDS011;13143;50.924;5.320;2023-12-22T14:42:58;9.57;;;1.92;;
25191;SDS011;13143;50.924;5.320;2023-12-22T14:45:26;17.98;;;2.17;;
25191;SDS011;13143;50.924;5.320;2023-12-22T14:47:52;9.13;;;1.35;;
25191;SDS011;13143;50.924;5.320;2023-12-22T14:50:18;8.85;;;1.65;;